Maseskar, Sweden

3:06 AM CEST on October 22, 2014 (GMT +0200)
Mollösund, Sweden | Change Station
CLOSE
Current Station
Personal Weather Station
Location: Västra Götalands Län, VäSTRA GöTALANDS LäN
Elevation: 69 ft
Nearby Weather Stations

Elev 69 ft 58.07 °N, 11.47 °E | Updated 1 minute ago

Rain
Rain
49.2 °F
Feels Like 45 °F
N
11.0
Wind Variable Wind from ENE
Gusts 21.0 mph

Today
High -- | Low -- °F
--% Chance of Precip.
Yesterday
High -- | Low -- °F
Precip. -- in
8:05 AM 5:51 PM
Waning Crescent, 4% visible
Pressure 29.50 in
Visibility 6.2 miles
Clouds Mostly Cloudy 1400 ft
Windchill 45 °F
Dew Point 48 °F
Humidity 94%
Rainfall 0.04 in
Snow Depth Not available.
UV 0 out of 12
Pollen Not available.
Air Quality Not available.
Flu Activity Not available.
METAR ESGP 220050Z 09010KT 9999 BKN014 10/09 Q0999 REDZ

More Conditions Fewer Conditions

Pressure 29.50 in
Visibility 6.2 miles
Clouds Mostly Cloudy 1400 ft
Windchill 45 °F
Dew Point 48 °F
Humidity 94%
Rainfall 0.04 in
Snow Depth Not available.
UV 0 out of 12
Pollen Not available.
Air Quality Not available.
Flu Activity Not available.
METAR ESGP 220050Z 09010KT 9999 BKN014 10/09 Q0999 REDZ

More Conditions Fewer Conditions

10-Day Weather Forecast

Almanac

Astronomy

Oct. 22, 2014 Rise Set
Actual Time 8:05 AM CEST 5:51 PM CEST
Civil Twilight 7:24 AM CEST 6:32 PM CEST
Nautical Twilight 6:38 AM CEST 7:18 PM CEST
Astronomical Twilight 5:53 AM CEST 8:03 PM CEST
Moon 6:11 AM CEST 5:23 PM CEST
Length of Visible Light 11h 07m
Length of Day
9h 46m
Tomorrow will be 4m 53s shorter.
Waning Crescent, 4% of the Moon is Illuminated
Oct 21
Waning Crescent
Oct 23
New
Oct 30
First Quarter
Nov 6
Full
Nov 14
Last Quarter

Yesterday's Extremes

Country Highs Country Lows

Community

WunderPhotos

Upload Photos

1,763,836 photos uploaded!

Nearby

Snow Depth

Not available.

Earthquake Activity

City Distance Mag. Time & Date
No recent earthquake activity has been reported nearby.
Minimum magnitude displayed is 2.5.

Coastal Water Temperatures

Place Temperature
No Stations Reporting

Nearby Weather Stations